sensor_id;sensor_type;location;lat;lon;timestamp;temperature;humidity
1355;DHT22;671;48.972;9.276;2024-02-26T00:00:43;8.80;99.90
1355;DHT22;671;48.972;9.276;2024-02-26T00:03:12;8.90;99.90
1355;DHT22;671;48.972;9.276;2024-02-26T00:05:39;8.90;99.90
1355;DHT22;671;48.972;9.276;2024-02-26T00:08:05;8.90;99.90
1355;DHT22;671;48.972;9.276;2024-02-26T00:10:32;8.90;99.90
1355;DHT22;671;48.972;9.276;2024-02-26T00:12:58;8.80;99.90
1355;DHT22;671;48.972;9.276;2024-02-26T00:15:25;8.80;99.90
1355;DHT22;671;48.972;9.276;2024-02-26T00:17:51;8.80;99.90
1355;DHT22;671;48.972;9.276;2024-02-26T00:20:18;8.90;99.90
1355;DHT22;671;48.972;9.276;2024-02-26T00:22:44;8.80;99.90
1355;DHT22;671;48.972;9.276;2024-02-26T00:25:11;8.80;99.90
1355;DHT22;671;48.972;9.276;2024-02-26T00:27:38;8.90;99.90
1355;DHT22;671;48.972;9.276;2024-02-26T00:30:07;8.90;99.90
1355;DHT22;671;48.972;9.276;2024-02-26T00:32:33;8.80;99.90
1355;DHT22;671;48.972;9.276;2024-02-26T00:35:00;8.90;99.90
1355;DHT22;671;48.972;9.276;2024-02-26T00:37:26;8.80;99.90
1355;DHT22;671;48.972;9.276;2024-02-26T00:39:53;8.90;99.90
1355;DHT22;671;48.972;9.276;2024-02-26T00:42:20;8.80;99.90
1355;DHT22;671;48.972;9.276;2024-02-26T00:44:46;8.80;99.90
1355;DHT22;671;48.972;9.276;2024-02-26T00:47:13;8.80;99.90
1355;DHT22;671;48.972;9.276;2024-02-26T00:49:38;8.80;99.90
1355;DHT22;671;48.972;9.276;2024-02-26T00:52:04;8.70;99.90
1355;DHT22;671;48.972;9.276;2024-02-26T00:54:30;8.70;99.90
1355;DHT22;671;48.972;9.276;2024-02-26T00:56:56;8.70;99.90
1355;DHT22;671;48.972;9.276;2024-02-26T00:59:22;8.70;99.90
1355;DHT22;671;48.972;9.276;2024-02-26T01:01:48;8.70;99.90
1355;DHT22;671;48.972;9.276;2024-02-26T01:04:15;8.70;99.90
1355;DHT22;671;48.972;9.276;2024-02-26T01:06:41;8.70;99.90
1355;DHT22;671;48.972;9.276;2024-02-26T01:09:08;8.70;99.90
1355;DHT22;671;48.972;9.276;2024-02-26T01:11:35;8.70;99.90
1355;DHT22;671;48.972;9.276;2024-02-26T01:14:02;8.70;99.90
1355;DHT22;671;48.972;9.276;2024-02-26T01:16:30;8.70;99.90
1355;DHT22;671;48.972;9.276;2024-02-26T01:18:57;8.70;99.90
1355;DHT22;671;48.972;9.276;2024-02-26T01:21:23;8.70;99.90
1355;DHT22;671;48.972;9.276;2024-02-26T01:23:50;8.80;99.90
1355;DHT22;671;48.972;9.276;2024-02-26T01:26:16;8.80;99.90
1355;DHT22;671;48.972;9.276;2024-02-26T01:28:43;8.80;99.90
1355;DHT22;671;48.972;9.276;2024-02-26T01:31:10;8.80;99.90
1355;DHT22;671;48.972;9.276;2024-02-26T01:33:36;8.80;99.90
1355;DHT22;671;48.972;9.276;2024-02-26T01:36:03;8.80;99.90
1355;DHT22;671;48.972;9.276;2024-02-26T01:38:30;8.70;99.90
1355;DHT22;671;48.972;9.276;2024-02-26T01:40:56;8.80;99.90
1355;DHT22;671;48.972;9.276;2024-02-26T01:43:23;8.70;99.90
1355;DHT22;671;48.972;9.276;2024-02-26T01:45:49;8.70;99.90
1355;DHT22;671;48.972;9.276;2024-02-26T01:48:16;8.70;99.90
1355;DHT22;671;48.972;9.276;2024-02-26T01:50:42;8.70;99.90
1355;DHT22;671;48.972;9.276;2024-02-26T01:53:09;8.70;99.90
1355;DHT22;671;48.972;9.276;2024-02-26T01:55:36;8.70;99.90
1355;DHT22;671;48.972;9.276;2024-02-26T01:58:03;8.70;99.90
1355;DHT22;671;48.972;9.276;2024-02-26T02:00:29;8.70;99.90
1355;DHT22;671;48.972;9.276;2024-02-26T02:02:56;8.60;99.90
1355;DHT22;671;48.972;9.276;2024-02-26T02:05:23;8.60;99.90
1355;DHT22;671;48.972;9.276;2024-02-26T02:07:51;8.60;99.90
1355;DHT22;671;48.972;9.276;2024-02-26T02:10:19;8.60;99.90
1355;DHT22;671;48.972;9.276;2024-02-26T02:12:49;8.50;99.90
1355;DHT22;671;48.972;9.276;2024-02-26T02:15:15;8.50;99.90
1355;DHT22;671;48.972;9.276;2024-02-26T02:17:42;8.50;99.90
1355;DHT22;671;48.972;9.276;2024-02-26T02:20:10;8.50;99.90
1355;DHT22;671;48.972;9.276;2024-02-26T02:22:41;8.50;99.90
1355;DHT22;671;48.972;9.276;2024-02-26T02:25:07;8.40;99.90
1355;DHT22;671;48.972;9.276;2024-02-26T02:27:34;8.50;99.90
1355;DHT22;671;48.972;9.276;2024-02-26T02:30:01;8.50;99.90
1355;DHT22;671;48.972;9.276;2024-02-26T02:32:29;8.50;99.90
1355;DHT22;671;48.972;9.276;2024-02-26T02:34:56;8.50;99.90
1355;DHT22;671;48.972;9.276;2024-02-26T02:37:23;8.50;99.90
1355;DHT22;671;48.972;9.276;2024-02-26T02:39:49;8.50;99.90
1355;DHT22;671;48.972;9.276;2024-02-26T02:42:16;8.40;99.90
1355;DHT22;671;48.972;9.276;2024-02-26T02:44:42;8.50;99.90
1355;DHT22;671;48.972;9.276;2024-02-26T02:47:10;8.50;99.90
1355;DHT22;671;48.972;9.276;2024-02-26T02:49:37;8.50;99.90
1355;DHT22;671;48.972;9.276;2024-02-26T02:52:04;8.50;99.90
1355;DHT22;671;48.972;9.276;2024-02-26T02:54:30;8.50;99.90
1355;DHT22;671;48.972;9.276;2024-02-26T02:56:57;8.50;99.90
1355;DHT22;671;48.972;9.276;2024-02-26T02:59:23;8.50;99.90
1355;DHT22;671;48.972;9.276;2024-02-26T03:01:49;8.50;99.90
1355;DHT22;671;48.972;9.276;2024-02-26T03:04:16;8.60;99.90
1355;DHT22;671;48.972;9.276;2024-02-26T03:06:42;8.60;99.90
1355;DHT22;671;48.972;9.276;2024-02-26T03:09:09;8.60;99.90
1355;DHT22;671;48.972;9.276;2024-02-26T03:11:35;8.60;99.90
1355;DHT22;671;48.972;9.276;2024-02-26T03:14:02;8.60;99.90
1355;DHT22;671;48.972;9.276;2024-02-26T03:16:29;8.60;99.90
1355;DHT22;671;48.972;9.276;2024-02-26T03:18:55;8.60;99.90
1355;DHT22;671;48.972;9.276;2024-02-26T03:21:22;8.60;99.90
1355;DHT22;671;48.972;9.276;2024-02-26T03:23:48;8.60;99.90
1355;DHT22;671;48.972;9.276;2024-02-26T03:26:15;8.60;99.90
1355;DHT22;671;48.972;9.276;2024-02-26T03:28:41;8.60;99.90
1355;DHT22;671;48.972;9.276;2024-02-26T03:31:08;8.70;99.90
1355;DHT22;671;48.972;9.276;2024-02-26T03:33:34;8.70;99.90
1355;DHT22;671;48.972;9.276;2024-02-26T03:36:01;8.60;99.90
1355;DHT22;671;48.972;9.276;2024-02-26T03:38:31;8.60;99.90
1355;DHT22;671;48.972;9.276;2024-02-26T03:40:57;8.60;99.90
1355;DHT22;671;48.972;9.276;2024-02-26T03:43:24;8.60;99.90
1355;DHT22;671;48.972;9.276;2024-02-26T03:45:50;8.50;99.90
1355;DHT22;671;48.972;9.276;2024-02-26T03:48:17;8.60;99.90
1355;DHT22;671;48.972;9.276;2024-02-26T03:50:43;8.50;99.90
1355;DHT22;671;48.972;9.276;2024-02-26T03:53:10;8.50;99.90
1355;DHT22;671;48.972;9.276;2024-02-26T03:55:38;8.50;99.90
1355;DHT22;671;48.972;9.276;2024-02-26T03:58:05;8.40;99.90
1355;DHT22;671;48.972;9.276;2024-02-26T04:00:31;8.40;99.90
1355;DHT22;671;48.972;9.276;2024-02-26T04:02:58;8.40;99.90
1355;DHT22;671;48.972;9.276;2024-02-26T04:05:24;8.30;99.90
1355;DHT22;671;48.972;9.276;2024-02-26T04:07:50;8.30;99.90
1355;DHT22;671;48.972;9.276;2024-02-26T04:10:17;8.30;99.90
1355;DHT22;671;48.972;9.276;2024-02-26T04:12:43;8.20;99.90
1355;DHT22;671;48.972;9.276;2024-02-26T04:15:11;8.20;99.90
1355;DHT22;671;48.972;9.276;2024-02-26T04:17:37;8.20;99.90
1355;DHT22;671;48.972;9.276;2024-02-26T04:20:05;8.10;99.90
1355;DHT22;671;48.972;9.276;2024-02-26T04:22:32;8.10;99.90
1355;DHT22;671;48.972;9.276;2024-02-26T04:24:59;8.10;99.90
1355;DHT22;671;48.972;9.276;2024-02-26T04:27:25;8.10;99.90
1355;DHT22;671;48.972;9.276;2024-02-26T04:29:52;8.00;99.90
1355;DHT22;671;48.972;9.276;2024-02-26T04:32:18;7.90;99.90
1355;DHT22;671;48.972;9.276;2024-02-26T04:34:45;8.00;99.90
1355;DHT22;671;48.972;9.276;2024-02-26T04:37:11;8.00;99.90
1355;DHT22;671;48.972;9.276;2024-02-26T04:39:38;8.00;99.90
1355;DHT22;671;48.972;9.276;2024-02-26T04:42:04;8.00;99.90
1355;DHT22;671;48.972;9.276;2024-02-26T04:44:31;8.00;99.90
1355;DHT22;671;48.972;9.276;2024-02-26T04:46:57;8.00;99.90
1355;DHT22;671;48.972;9.276;2024-02-26T04:49:23;8.00;99.90
1355;DHT22;671;48.972;9.276;2024-02-26T04:51:50;8.00;99.90
1355;DHT22;671;48.972;9.276;2024-02-26T04:54:16;8.00;99.90
1355;DHT22;671;48.972;9.276;2024-02-26T04:56:43;8.00;99.90
1355;DHT22;671;48.972;9.276;2024-02-26T04:59:10;8.00;99.90
1355;DHT22;671;48.972;9.276;2024-02-26T05:01:37;8.00;99.90
1355;DHT22;671;48.972;9.276;2024-02-26T05:04:03;8.00;99.90
1355;DHT22;671;48.972;9.276;2024-02-26T05:06:29;8.00;99.90
1355;DHT22;671;48.972;9.276;2024-02-26T05:08:56;8.10;99.90
1355;DHT22;671;48.972;9.276;2024-02-26T05:11:22;8.10;99.90
1355;DHT22;671;48.972;9.276;2024-02-26T05:13:49;8.10;99.90
1355;DHT22;671;48.972;9.276;2024-02-26T05:16:15;8.10;99.90
1355;DHT22;671;48.972;9.276;2024-02-26T05:18:42;8.10;99.90
1355;DHT22;671;48.972;9.276;2024-02-26T05:21:08;8.20;99.90
1355;DHT22;671;48.972;9.276;2024-02-26T05:23:34;8.20;99.90
1355;DHT22;671;48.972;9.276;2024-02-26T05:26:01;8.20;99.90
1355;DHT22;671;48.972;9.276;2024-02-26T05:28:27;8.20;99.90
1355;DHT22;671;48.972;9.276;2024-02-26T05:30:54;8.30;99.90
1355;DHT22;671;48.972;9.276;2024-02-26T05:33:21;8.30;99.90
1355;DHT22;671;48.972;9.276;2024-02-26T05:35:47;8.30;99.90
1355;DHT22;671;48.972;9.276;2024-02-26T05:38:14;8.40;99.90
1355;DHT22;671;48.972;9.276;2024-02-26T05:40:41;8.40;99.90
1355;DHT22;671;48.972;9.276;2024-02-26T05:43:07;8.40;99.90
1355;DHT22;671;48.972;9.276;2024-02-26T05:45:34;8.30;99.90
1355;DHT22;671;48.972;9.276;2024-02-26T05:48:00;8.20;99.90
1355;DHT22;671;48.972;9.276;2024-02-26T05:50:26;8.20;99.90
1355;DHT22;671;48.972;9.276;2024-02-26T05:52:53;8.20;99.90
1355;DHT22;671;48.972;9.276;2024-02-26T05:55:19;8.20;99.90
1355;DHT22;671;48.972;9.276;2024-02-26T05:57:46;8.20;99.90
1355;DHT22;671;48.972;9.276;2024-02-26T06:00:13;8.10;99.90
1355;DHT22;671;48.972;9.276;2024-02-26T06:02:39;8.10;99.90
1355;DHT22;671;48.972;9.276;2024-02-26T06:05:06;8.10;99.90
1355;DHT22;671;48.972;9.276;2024-02-26T06:07:34;8.10;99.90
1355;DHT22;671;48.972;9.276;2024-02-26T06:10:02;8.10;99.90
1355;DHT22;671;48.972;9.276;2024-02-26T06:12:29;8.10;99.90
1355;DHT22;671;48.972;9.276;2024-02-26T06:14:57;8.10;99.90
1355;DHT22;671;48.972;9.276;2024-02-26T06:17:24;8.10;99.90
1355;DHT22;671;48.972;9.276;2024-02-26T06:19:51;8.10;99.90
1355;DHT22;671;48.972;9.276;2024-02-26T06:22:17;8.10;99.90
1355;DHT22;671;48.972;9.276;2024-02-26T06:24:44;8.10;99.90
1355;DHT22;671;48.972;9.276;2024-02-26T06:27:10;8.10;99.90
1355;DHT22;671;48.972;9.276;2024-02-26T06:29:37;8.20;99.90
1355;DHT22;671;48.972;9.276;2024-02-26T06:32:04;8.20;99.90
1355;DHT22;671;48.972;9.276;2024-02-26T06:34:30;8.20;99.90
1355;DHT22;671;48.972;9.276;2024-02-26T06:36:57;8.10;99.90
1355;DHT22;671;48.972;9.276;2024-02-26T06:39:23;8.10;99.90
1355;DHT22;671;48.972;9.276;2024-02-26T06:41:50;8.10;99.90
1355;DHT22;671;48.972;9.276;2024-02-26T06:44:16;8.10;99.90
1355;DHT22;671;48.972;9.276;2024-02-26T06:46:42;8.10;99.90
1355;DHT22;671;48.972;9.276;2024-02-26T06:49:09;8.10;99.90
1355;DHT22;671;48.972;9.276;2024-02-26T06:51:35;8.00;99.90
1355;DHT22;671;48.972;9.276;2024-02-26T06:54:02;8.00;99.90
1355;DHT22;671;48.972;9.276;2024-02-26T06:56:28;8.00;99.90
1355;DHT22;671;48.972;9.276;2024-02-26T06:58:55;8.00;99.90
1355;DHT22;671;48.972;9.276;2024-02-26T07:01:21;8.00;99.90
1355;DHT22;671;48.972;9.276;2024-02-26T07:03:48;8.00;99.90
1355;DHT22;671;48.972;9.276;2024-02-26T07:06:14;8.00;99.90
1355;DHT22;671;48.972;9.276;2024-02-26T07:08:41;8.00;99.90
1355;DHT22;671;48.972;9.276;2024-02-26T07:11:07;8.10;99.90
1355;DHT22;671;48.972;9.276;2024-02-26T07:13:35;8.10;99.90
1355;DHT22;671;48.972;9.276;2024-02-26T07:16:01;8.10;99.90
1355;DHT22;671;48.972;9.276;2024-02-26T07:18:28;8.10;99.90
1355;DHT22;671;48.972;9.276;2024-02-26T07:20:54;8.10;99.90
1355;DHT22;671;48.972;9.276;2024-02-26T07:23:22;8.20;99.90
1355;DHT22;671;48.972;9.276;2024-02-26T07:25:48;8.20;99.90
1355;DHT22;671;48.972;9.276;2024-02-26T07:28:16;8.30;99.90
1355;DHT22;671;48.972;9.276;2024-02-26T07:30:43;8.30;99.90
1355;DHT22;671;48.972;9.276;2024-02-26T07:33:09;8.40;99.90
1355;DHT22;671;48.972;9.276;2024-02-26T07:35:36;8.50;99.90
1355;DHT22;671;48.972;9.276;2024-02-26T07:38:05;8.60;99.90
1355;DHT22;671;48.972;9.276;2024-02-26T07:40:31;8.70;99.90
1355;DHT22;671;48.972;9.276;2024-02-26T07:42:58;8.70;99.90
1355;DHT22;671;48.972;9.276;2024-02-26T07:45:24;8.80;99.90
1355;DHT22;671;48.972;9.276;2024-02-26T07:47:51;8.80;99.90
1355;DHT22;671;48.972;9.276;2024-02-26T07:50:18;8.80;99.90
1355;DHT22;671;48.972;9.276;2024-02-26T07:52:46;8.90;99.90
1355;DHT22;671;48.972;9.276;2024-02-26T07:55:12;8.90;99.90
1355;DHT22;671;48.972;9.276;2024-02-26T07:57:42;9.00;99.90
1355;DHT22;671;48.972;9.276;2024-02-26T08:00:10;9.10;99.90
1355;DHT22;671;48.972;9.276;2024-02-26T08:02:37;9.10;99.90
1355;DHT22;671;48.972;9.276;2024-02-26T08:05:03;9.20;99.90
1355;DHT22;671;48.972;9.276;2024-02-26T08:07:31;9.20;99.90
1355;DHT22;671;48.972;9.276;2024-02-26T08:09:57;9.20;99.90
1355;DHT22;671;48.972;9.276;2024-02-26T08:12:23;9.30;99.90
1355;DHT22;671;48.972;9.276;2024-02-26T08:14:50;9.40;99.90
1355;DHT22;671;48.972;9.276;2024-02-26T08:17:17;9.40;99.90
1355;DHT22;671;48.972;9.276;2024-02-26T08:19:44;9.50;99.90
1355;DHT22;671;48.972;9.276;2024-02-26T08:22:10;9.50;99.90
1355;DHT22;671;48.972;9.276;2024-02-26T08:24:42;9.60;99.90
1355;DHT22;671;48.972;9.276;2024-02-26T08:27:09;9.70;99.90
1355;DHT22;671;48.972;9.276;2024-02-26T08:29:35;9.70;99.90
1355;DHT22;671;48.972;9.276;2024-02-26T08:32:02;9.80;99.90
1355;DHT22;671;48.972;9.276;2024-02-26T08:34:28;9.90;99.90
1355;DHT22;671;48.972;9.276;2024-02-26T08:36:55;9.90;99.90
1355;DHT22;671;48.972;9.276;2024-02-26T08:39:21;9.90;99.90
1355;DHT22;671;48.972;9.276;2024-02-26T08:41:48;10.00;99.90
1355;DHT22;671;48.972;9.276;2024-02-26T08:44:14;10.00;99.90
1355;DHT22;671;48.972;9.276;2024-02-26T08:46:41;10.00;99.90
1355;DHT22;671;48.972;9.276;2024-02-26T08:49:07;10.00;99.90
1355;DHT22;671;48.972;9.276;2024-02-26T08:51:33;10.00;99.90
1355;DHT22;671;48.972;9.276;2024-02-26T08:54:00;10.00;99.90
1355;DHT22;671;48.972;9.276;2024-02-26T08:56:26;10.00;99.90
1355;DHT22;671;48.972;9.276;2024-02-26T08:58:53;10.00;99.90
1355;DHT22;671;48.972;9.276;2024-02-26T09:01:23;10.00;99.90
1355;DHT22;671;48.972;9.276;2024-02-26T09:03:49;10.10;99.90
1355;DHT22;671;48.972;9.276;2024-02-26T09:06:16;10.20;99.90
1355;DHT22;671;48.972;9.276;2024-02-26T09:08:42;10.30;99.90
1355;DHT22;671;48.972;9.276;2024-02-26T09:11:09;10.30;99.90
1355;DHT22;671;48.972;9.276;2024-02-26T09:13:36;10.40;99.90
1355;DHT22;671;48.972;9.276;2024-02-26T09:16:03;10.40;99.90
1355;DHT22;671;48.972;9.276;2024-02-26T09:18:29;10.50;99.90
1355;DHT22;671;48.972;9.276;2024-02-26T09:20:56;10.50;99.90
1355;DHT22;671;48.972;9.276;2024-02-26T09:23:22;10.60;99.90
1355;DHT22;671;48.972;9.276;2024-02-26T09:25:49;10.60;99.90
1355;DHT22;671;48.972;9.276;2024-02-26T09:28:15;10.70;99.90
1355;DHT22;671;48.972;9.276;2024-02-26T09:30:44;10.90;99.90
1355;DHT22;671;48.972;9.276;2024-02-26T09:33:10;11.10;99.90
1355;DHT22;671;48.972;9.276;2024-02-26T09:35:37;11.30;99.90
1355;DHT22;671;48.972;9.276;2024-02-26T09:38:04;11.40;99.90
1355;DHT22;671;48.972;9.276;2024-02-26T09:40:30;11.50;99.90
1355;DHT22;671;48.972;9.276;2024-02-26T09:43:00;11.70;99.90
1355;DHT22;671;48.972;9.276;2024-02-26T09:45:28;11.80;99.90
1355;DHT22;671;48.972;9.276;2024-02-26T09:47:56;11.90;99.90
1355;DHT22;671;48.972;9.276;2024-02-26T09:50:23;12.00;99.90
1355;DHT22;671;48.972;9.276;2024-02-26T09:52:51;12.10;99.90
1355;DHT22;671;48.972;9.276;2024-02-26T09:55:18;12.20;99.90
1355;DHT22;671;48.972;9.276;2024-02-26T09:57:46;12.40;99.90
1355;DHT22;671;48.972;9.276;2024-02-26T10:00:17;12.40;99.90
1355;DHT22;671;48.972;9.276;2024-02-26T10:02:46;12.40;99.90
1355;DHT22;671;48.972;9.276;2024-02-26T10:05:18;12.40;99.90
1355;DHT22;671;48.972;9.276;2024-02-26T10:07:45;12.40;99.90
1355;DHT22;671;48.972;9.276;2024-02-26T10:10:14;12.50;99.90
1355;DHT22;671;48.972;9.276;2024-02-26T10:12:40;12.60;99.90
1355;DHT22;671;48.972;9.276;2024-02-26T10:15:07;12.70;99.90
1355;DHT22;671;48.972;9.276;2024-02-26T10:17:34;12.80;99.90
1355;DHT22;671;48.972;9.276;2024-02-26T10:20:15;12.90;99.90
1355;DHT22;671;48.972;9.276;2024-02-26T10:22:42;12.90;99.90
1355;DHT22;671;48.972;9.276;2024-02-26T10:25:09;12.90;99.90
1355;DHT22;671;48.972;9.276;2024-02-26T10:27:36;13.00;99.90
1355;DHT22;671;48.972;9.276;2024-02-26T10:30:22;13.10;99.90
1355;DHT22;671;48.972;9.276;2024-02-26T10:32:49;13.10;99.90
1355;DHT22;671;48.972;9.276;2024-02-26T10:35:16;13.20;99.90
1355;DHT22;671;48.972;9.276;2024-02-26T10:37:47;13.30;99.90
1355;DHT22;671;48.972;9.276;2024-02-26T10:40:14;13.40;99.90
1355;DHT22;671;48.972;9.276;2024-02-26T10:42:41;13.40;99.90
1355;DHT22;671;48.972;9.276;2024-02-26T10:45:09;13.50;99.90
1355;DHT22;671;48.972;9.276;2024-02-26T10:47:36;13.60;99.90
1355;DHT22;671;48.972;9.276;2024-02-26T10:50:06;13.70;99.90
1355;DHT22;671;48.972;9.276;2024-02-26T10:52:34;13.70;99.90
1355;DHT22;671;48.972;9.276;2024-02-26T10:55:05;13.80;99.90
1355;DHT22;671;48.972;9.276;2024-02-26T11:00:02;13.80;99.90
1355;DHT22;671;48.972;9.276;2024-02-26T11:02:34;13.80;99.90
1355;DHT22;671;48.972;9.276;2024-02-26T11:05:06;13.80;99.90
1355;DHT22;671;48.972;9.276;2024-02-26T11:07:34;13.80;99.90
1355;DHT22;671;48.972;9.276;2024-02-26T11:10:03;13.90;99.90
1355;DHT22;671;48.972;9.276;2024-02-26T11:12:32;13.90;99.90
1355;DHT22;671;48.972;9.276;2024-02-26T11:15:02;14.00;99.90
1355;DHT22;671;48.972;9.276;2024-02-26T11:17:29;14.00;99.90
1355;DHT22;671;48.972;9.276;2024-02-26T11:19:58;14.10;99.90
1355;DHT22;671;48.972;9.276;2024-02-26T11:22:28;14.10;99.90
1355;DHT22;671;48.972;9.276;2024-02-26T11:24:56;14.20;99.90
1355;DHT22;671;48.972;9.276;2024-02-26T11:27:28;14.10;99.90
1355;DHT22;671;48.972;9.276;2024-02-26T11:29:57;14.10;99.90
1355;DHT22;671;48.972;9.276;2024-02-26T11:32:27;14.10;99.90
1355;DHT22;671;48.972;9.276;2024-02-26T11:34:54;14.10;99.90
1355;DHT22;671;48.972;9.276;2024-02-26T11:37:20;14.10;99.90
1355;DHT22;671;48.972;9.276;2024-02-26T11:39:47;14.00;99.90
1355;DHT22;671;48.972;9.276;2024-02-26T11:42:15;14.00;99.90
1355;DHT22;671;48.972;9.276;2024-02-26T11:44:42;14.00;99.90
1355;DHT22;671;48.972;9.276;2024-02-26T11:47:18;14.00;99.90
1355;DHT22;671;48.972;9.276;2024-02-26T11:49:45;14.00;99.90
1355;DHT22;671;48.972;9.276;2024-02-26T11:52:13;14.00;99.90
1355;DHT22;671;48.972;9.276;2024-02-26T11:57:28;14.10;99.90
1355;DHT22;671;48.972;9.276;2024-02-26T11:59:56;14.30;99.90
1355;DHT22;671;48.972;9.276;2024-02-26T12:02:46;14.30;99.90
1355;DHT22;671;48.972;9.276;2024-02-26T12:05:20;14.40;99.90
1355;DHT22;671;48.972;9.276;2024-02-26T12:07:53;14.50;99.90
1355;DHT22;671;48.972;9.276;2024-02-26T12:10:26;14.70;99.90
1355;DHT22;671;48.972;9.276;2024-02-26T12:15:24;14.70;99.90
1355;DHT22;671;48.972;9.276;2024-02-26T12:17:51;14.80;99.90
1355;DHT22;671;48.972;9.276;2024-02-26T12:20:18;14.80;99.90
1355;DHT22;671;48.972;9.276;2024-02-26T12:22:46;14.80;99.90
1355;DHT22;671;48.972;9.276;2024-02-26T12:25:16;14.80;99.90
1355;DHT22;671;48.972;9.276;2024-02-26T12:27:42;14.80;99.90
1355;DHT22;671;48.972;9.276;2024-02-26T12:30:09;14.80;99.90
1355;DHT22;671;48.972;9.276;2024-02-26T12:32:36;14.80;99.90
1355;DHT22;671;48.972;9.276;2024-02-26T12:35:03;14.90;99.90
1355;DHT22;671;48.972;9.276;2024-02-26T12:37:30;14.90;99.90
1355;DHT22;671;48.972;9.276;2024-02-26T12:39:56;15.00;99.90
1355;DHT22;671;48.972;9.276;2024-02-26T12:42:23;15.00;99.90
1355;DHT22;671;48.972;9.276;2024-02-26T12:44:50;15.10;99.90
1355;DHT22;671;48.972;9.276;2024-02-26T12:47:17;15.20;99.90
1355;DHT22;671;48.972;9.276;2024-02-26T12:49:47;15.40;99.90
1355;DHT22;671;48.972;9.276;2024-02-26T12:52:16;15.50;99.90
1355;DHT22;671;48.972;9.276;2024-02-26T12:54:43;15.70;99.90
1355;DHT22;671;48.972;9.276;2024-02-26T12:57:11;15.80;99.90
1355;DHT22;671;48.972;9.276;2024-02-26T12:59:37;16.00;99.90
1355;DHT22;671;48.972;9.276;2024-02-26T13:02:04;16.10;99.90
1355;DHT22;671;48.972;9.276;2024-02-26T13:04:31;16.20;99.90
1355;DHT22;671;48.972;9.276;2024-02-26T13:06:58;16.20;99.90
1355;DHT22;671;48.972;9.276;2024-02-26T13:09:32;16.30;99.90
1355;DHT22;671;48.972;9.276;2024-02-26T13:11:59;16.20;99.90
1355;DHT22;671;48.972;9.276;2024-02-26T13:14:27;16.10;99.90
1355;DHT22;671;48.972;9.276;2024-02-26T13:17:00;15.90;99.90
1355;DHT22;671;48.972;9.276;2024-02-26T13:19:27;16.00;99.90
1355;DHT22;671;48.972;9.276;2024-02-26T13:21:56;16.00;99.90
1355;DHT22;671;48.972;9.276;2024-02-26T13:24:29;16.10;99.90
1355;DHT22;671;48.972;9.276;2024-02-26T13:26:57;16.20;99.90
1355;DHT22;671;48.972;9.276;2024-02-26T13:29:23;16.20;99.90
1355;DHT22;671;48.972;9.276;2024-02-26T13:31:57;16.30;99.90
1355;DHT22;671;48.972;9.276;2024-02-26T13:34:28;16.30;99.90
1355;DHT22;671;48.972;9.276;2024-02-26T13:36:57;16.30;99.90
1355;DHT22;671;48.972;9.276;2024-02-26T13:39:24;16.20;99.90
1355;DHT22;671;48.972;9.276;2024-02-26T13:41:51;16.30;99.90
1355;DHT22;671;48.972;9.276;2024-02-26T13:44:19;16.30;99.90
1355;DHT22;671;48.972;9.276;2024-02-26T13:46:47;16.40;99.90
1355;DHT22;671;48.972;9.276;2024-02-26T13:49:13;16.40;99.90
1355;DHT22;671;48.972;9.276;2024-02-26T13:51:40;16.50;99.90
1355;DHT22;671;48.972;9.276;2024-02-26T13:54:07;16.50;99.90
1355;DHT22;671;48.972;9.276;2024-02-26T13:56:34;16.60;99.90
1355;DHT22;671;48.972;9.276;2024-02-26T13:59:00;16.60;99.90
1355;DHT22;671;48.972;9.276;2024-02-26T14:01:27;16.60;99.90
1355;DHT22;671;48.972;9.276;2024-02-26T14:03:54;16.50;99.90
1355;DHT22;671;48.972;9.276;2024-02-26T14:06:23;16.50;99.90
1355;DHT22;671;48.972;9.276;2024-02-26T14:08:50;16.50;99.90
1355;DHT22;671;48.972;9.276;2024-02-26T14:11:16;16.50;99.90
1355;DHT22;671;48.972;9.276;2024-02-26T14:13:43;16.40;99.90
1355;DHT22;671;48.972;9.276;2024-02-26T14:16:09;16.40;99.90
1355;DHT22;671;48.972;9.276;2024-02-26T14:18:37;16.40;99.90
1355;DHT22;671;48.972;9.276;2024-02-26T14:21:03;16.40;99.90
1355;DHT22;671;48.972;9.276;2024-02-26T14:23:30;16.40;99.90
1355;DHT22;671;48.972;9.276;2024-02-26T14:25:56;16.50;99.90
1355;DHT22;671;48.972;9.276;2024-02-26T14:28:22;16.60;99.90
1355;DHT22;671;48.972;9.276;2024-02-26T14:30:51;16.60;99.90
1355;DHT22;671;48.972;9.276;2024-02-26T14:33:17;16.50;99.90
1355;DHT22;671;48.972;9.276;2024-02-26T14:35:43;16.50;99.90
1355;DHT22;671;48.972;9.276;2024-02-26T14:38:10;16.50;99.90
1355;DHT22;671;48.972;9.276;2024-02-26T14:40:38;16.40;99.90
1355;DHT22;671;48.972;9.276;2024-02-26T14:43:04;16.40;99.90
1355;DHT22;671;48.972;9.276;2024-02-26T14:45:31;16.40;99.90
1355;DHT22;671;48.972;9.276;2024-02-26T14:47:58;16.40;99.90
1355;DHT22;671;48.972;9.276;2024-02-26T14:50:24;16.30;99.90
1355;DHT22;671;48.972;9.276;2024-02-26T14:52:51;16.30;99.90
1355;DHT22;671;48.972;9.276;2024-02-26T14:55:17;16.30;99.90
1355;DHT22;671;48.972;9.276;2024-02-26T14:57:44;16.20;99.90
1355;DHT22;671;48.972;9.276;2024-02-26T15:00:10;16.20;99.90
1355;DHT22;671;48.972;9.276;2024-02-26T15:02:37;16.20;99.90
1355;DHT22;671;48.972;9.276;2024-02-26T15:05:04;16.20;99.90
1355;DHT22;671;48.972;9.276;2024-02-26T15:07:30;16.10;99.90
1355;DHT22;671;48.972;9.276;2024-02-26T15:09:57;16.10;99.90
1355;DHT22;671;48.972;9.276;2024-02-26T15:12:25;16.00;99.90
1355;DHT22;671;48.972;9.276;2024-02-26T15:14:52;15.90;99.90
1355;DHT22;671;48.972;9.276;2024-02-26T15:17:18;15.90;99.90
1355;DHT22;671;48.972;9.276;2024-02-26T15:19:46;15.90;99.90
1355;DHT22;671;48.972;9.276;2024-02-26T15:22:12;15.80;99.90
1355;DHT22;671;48.972;9.276;2024-02-26T15:24:39;15.80;99.90
1355;DHT22;671;48.972;9.276;2024-02-26T15:27:05;15.70;99.90
1355;DHT22;671;48.972;9.276;2024-02-26T15:29:32;15.60;99.90
1355;DHT22;671;48.972;9.276;2024-02-26T15:31:58;15.60;99.90
1355;DHT22;671;48.972;9.276;2024-02-26T15:34:25;15.50;99.90
1355;DHT22;671;48.972;9.276;2024-02-26T15:36:51;15.50;99.90
1355;DHT22;671;48.972;9.276;2024-02-26T15:39:18;15.40;99.90
1355;DHT22;671;48.972;9.276;2024-02-26T15:41:47;15.40;99.90
1355;DHT22;671;48.972;9.276;2024-02-26T15:44:13;15.30;99.90
1355;DHT22;671;48.972;9.276;2024-02-26T15:46:40;15.20;99.90
1355;DHT22;671;48.972;9.276;2024-02-26T15:49:07;15.20;99.90
1355;DHT22;671;48.972;9.276;2024-02-26T15:51:34;15.10;99.90
1355;DHT22;671;48.972;9.276;2024-02-26T15:54:01;15.00;99.90
1355;DHT22;671;48.972;9.276;2024-02-26T15:56:28;14.90;99.90
1355;DHT22;671;48.972;9.276;2024-02-26T15:58:55;14.80;99.90
1355;DHT22;671;48.972;9.276;2024-02-26T16:01:22;14.80;99.90
1355;DHT22;671;48.972;9.276;2024-02-26T16:03:48;14.70;99.90
1355;DHT22;671;48.972;9.276;2024-02-26T16:06:31;14.60;99.90
1355;DHT22;671;48.972;9.276;2024-02-26T16:08:59;14.50;99.90
1355;DHT22;671;48.972;9.276;2024-02-26T16:11:26;14.50;99.90
1355;DHT22;671;48.972;9.276;2024-02-26T16:13:59;14.50;99.90
1355;DHT22;671;48.972;9.276;2024-02-26T16:16:29;14.40;99.90
1355;DHT22;671;48.972;9.276;2024-02-26T16:19:05;14.30;99.90
1355;DHT22;671;48.972;9.276;2024-02-26T16:21:33;14.20;99.90
1355;DHT22;671;48.972;9.276;2024-02-26T16:23:59;14.20;99.90
1355;DHT22;671;48.972;9.276;2024-02-26T16:26:25;14.10;99.90
1355;DHT22;671;48.972;9.276;2024-02-26T16:28:52;14.00;99.90
1355;DHT22;671;48.972;9.276;2024-02-26T16:31:18;13.90;99.90
1355;DHT22;671;48.972;9.276;2024-02-26T16:33:45;13.80;99.90